Time;durP1;ratioP1;P1;durP2;ratioP2;P2;SDS_P1;SDS_P2;PMS_P1;PMS_P2;Temp;Humidity;BMP_temperature;BMP_pressure;BME280_temperature;BME280_humidity;BME280_pressure;Samples;Min_cycle;Max_cycle;Signal;HPM_P1;HPM_P2
2022/08/11 00:02:27;;;;;;;0.47;0.47;;;22.40;49.60;;;;;;6275721;22;20089;-78
2022/08/11 00:04:55;;;;;;;0.50;0.50;;;22.40;49.70;;;;;;6223829;22;20098;-78
2022/08/11 00:07:21;;;;;;;0.38;0.38;;;22.30;49.70;;;;;;6248246;22;20015;-78
2022/08/11 00:09:47;;;;;;;0.30;0.30;;;22.40;49.90;;;;;;6276198;22;20010;-78
2022/08/11 00:12:16;;;;;;;0.40;0.40;;;22.30;49.90;;;;;;6248278;22;20015;-78
2022/08/11 00:14:44;;;;;;;0.40;0.40;;;22.30;50.00;;;;;;6272634;22;20011;-78
2022/08/11 00:17:13;;;;;;;0.20;0.20;;;22.30;50.10;;;;;;6275338;22;20431;-78
2022/08/11 00:19:45;;;;;;;0.38;0.38;;;22.10;50.10;;;;;;6276236;22;20093;-78
2022/08/11 00:22:18;;;;;;;0.30;0.30;;;22.10;50.20;;;;;;6275506;22;20012;-78
2022/08/11 00:24:44;;;;;;;0.40;0.40;;;22.10;50.30;;;;;;6245798;22;20022;-78
2022/08/11 00:27:10;;;;;;;0.55;0.40;;;22.10;50.40;;;;;;6275611;22;20444;-78
2022/08/11 00:29:35;;;;;;;1.20;0.52;;;22.00;50.40;;;;;;6275627;22;20057;-78
2022/08/11 00:32:04;;;;;;;0.55;0.28;;;21.90;50.40;;;;;;6248486;22;20427;-78
2022/08/11 00:34:35;;;;;;;0.40;0.40;;;21.90;50.60;;;;;;6224102;22;20292;-79
2022/08/11 00:37:06;;;;;;;0.32;0.32;;;21.90;50.70;;;;;;6273476;22;20000;-78
2022/08/11 00:39:42;;;;;;;0.40;0.40;;;21.90;50.70;;;;;;6273107;22;20343;-78
2022/08/11 00:42:43;;;;;;;0.35;0.35;;;21.90;50.70;;;;;;6247198;22;20011;-78
2022/08/11 00:45:36;;;;;;;0.40;0.40;;;21.80;50.80;;;;;;6275669;22;20478;-78
2022/08/11 00:48:14;;;;;;;0.50;0.50;;;21.80;50.90;;;;;;6245587;22;20018;-79
2022/08/11 00:51:04;;;;;;;0.50;0.50;;;21.70;51.00;;;;;;6274463;22;21305;-78
2022/08/11 00:53:43;;;;;;;0.50;0.50;;;21.70;51.10;;;;;;6248384;22;20320;-78
2022/08/11 00:56:45;;;;;;;0.30;0.30;;;21.70;51.10;;;;;;6274082;22;20084;-78
2022/08/11 00:59:45;;;;;;;0.47;0.47;;;21.60;51.20;;;;;;6247449;22;20514;-78
2022/08/11 01:02:38;;;;;;;0.45;0.40;;;21.50;51.20;;;;;;6247365;22;20453;-78
2022/08/11 01:05:27;;;;;;;0.40;0.40;;;21.60;51.30;;;;;;6272999;22;20018;-78
2022/08/11 01:08:14;;;;;;;0.50;0.50;;;21.50;51.40;;;;;;6220889;22;20012;-78
2022/08/11 01:11:16;;;;;;;0.55;0.40;;;21.40;51.40;;;;;;6248249;22;20332;-78
2022/08/11 01:14:17;;;;;;;1.25;0.52;;;21.50;51.50;;;;;;6251423;22;20046;-78
2022/08/11 01:17:17;;;;;;;0.40;0.40;;;21.40;51.60;;;;;;6274076;22;20054;-78
2022/08/11 01:20:06;;;;;;;0.38;0.38;;;21.40;51.60;;;;;;6255525;22;20459;-78
2022/08/11 01:23:07;;;;;;;0.30;0.30;;;21.40;51.70;;;;;;6247650;22;20073;-78
2022/08/11 01:25:43;;;;;;;;;;;21.30;51.70;;;;;;6249032;22;20081;-78
2022/08/11 01:28:48;;;;;;;0.40;0.40;;;21.30;51.70;;;;;;6274975;22;19911;-78
2022/08/11 01:31:38;;;;;;;0.50;0.50;;;21.30;51.80;;;;;;6274347;22;20046;-79
2022/08/11 01:34:44;;;;;;;0.38;0.38;;;21.30;52.00;;;;;;6242079;22;20046;-78
2022/08/11 01:37:39;;;;;;;0.30;0.30;;;21.20;51.90;;;;;;6231101;22;20021;-78
2022/08/11 01:40:33;;;;;;;0.47;0.47;;;21.20;52.00;;;;;;6275259;22;20339;-78
2022/08/11 01:46:21;;;;;;;0.40;0.40;;;21.20;52.20;;;;;;6272652;22;20019;-78
2022/08/11 01:49:10;;;;;;;0.60;0.40;;;21.20;52.20;;;;;;6274134;22;20091;-78
2022/08/11 01:52:14;;;;;;;0.57;0.50;;;21.10;52.20;;;;;;6274985;22;20004;-78
2022/08/11 01:54:47;;;;;;;0.35;0.35;;;21.20;52.40;;;;;;6272561;22;20031;-78
2022/08/11 01:57:34;;;;;;;0.38;0.38;;;21.00;52.30;;;;;;6248133;22;20016;-78
2022/08/11 02:00:08;;;;;;;0.47;0.47;;;21.10;52.40;;;;;;6273968;22;20335;-78
2022/08/11 02:02:55;;;;;;;0.40;0.40;;;21.10;52.50;;;;;;6275545;22;20045;-78
2022/08/11 02:05:42;;;;;;;0.32;0.30;;;21.10;52.50;;;;;;6248117;22;20022;-78
2022/08/11 02:08:40;;;;;;;0.50;0.50;;;21.10;52.60;;;;;;6274927;22;20090;-78
2022/08/11 02:11:29;;;;;;;0.50;0.50;;;21.00;52.70;;;;;;6274873;22;20015;-78
2022/08/11 02:14:05;;;;;;;0.32;0.32;;;21.00;52.70;;;;;;6275195;22;20053;-78
2022/08/11 02:16:49;;;;;;;0.35;0.35;;;21.00;52.80;;;;;;6275530;22;20011;-78
2022/08/11 02:25:46;;;;;;;0.40;0.40;;;20.90;52.90;;;;;;6252226;22;20102;-78
2022/08/11 02:28:27;;;;;;;0.30;0.30;;;20.90;53.00;;;;;;6252796;22;20303;-78
2022/08/11 02:34:11;;;;;;;0.30;0.30;;;20.90;53.10;;;;;;6274982;22;20015;-78
2022/08/11 02:36:43;;;;;;;;;;;20.80;53.20;;;;;;6274460;22;20031;-78
2022/08/11 02:39:16;;;;;;;0.40;0.40;;;20.80;53.20;;;;;;6274719;22;19981;-78
2022/08/11 02:42:26;;;;;;;0.50;0.50;;;20.80;53.30;;;;;;6271624;22;20004;-78
2022/08/11 02:45:28;;;;;;;0.40;0.40;;;20.70;53.30;;;;;;6255219;22;20015;-79
2022/08/11 02:51:29;;;;;;;0.43;0.40;;;20.60;53.50;;;;;;6234348;22;20012;-78
2022/08/11 02:54:20;;;;;;;0.70;0.52;;;20.60;53.60;;;;;;6247011;22;20038;-78
2022/08/11 02:56:57;;;;;;;0.30;0.30;;;20.60;53.70;;;;;;6272195;22;20012;-78
2022/08/11 03:00:06;;;;;;;0.40;0.40;;;20.60;53.70;;;;;;6247589;22;20018;-78
2022/08/11 03:02:48;;;;;;;0.40;0.40;;;20.40;53.80;;;;;;6272226;22;20432;-78
2022/08/11 03:05:26;;;;;;;0.30;0.30;;;20.50;53.90;;;;;;6219255;22;20459;-78
2022/08/11 03:08:08;;;;;;;0.30;0.30;;;20.50;54.10;;;;;;6244750;22;20432;-78
2022/08/11 03:16:43;;;;;;;0.25;0.25;;;20.50;54.10;;;;;;6272425;22;20003;-78
2022/08/11 03:19:43;;;;;;;0.60;0.40;;;20.30;54.30;;;;;;6250171;22;20389;-78
2022/08/11 03:22:37;;;;;;;0.30;0.30;;;20.20;54.50;;;;;;6229523;22;20103;-78
2022/08/11 03:25:11;;;;;;;0.30;0.30;;;20.20;54.60;;;;;;6274496;22;20043;-78
2022/08/11 03:27:49;;;;;;;0.28;0.28;;;20.20;54.80;;;;;;6274512;22;20339;-78
2022/08/11 03:30:21;;;;;;;0.47;0.40;;;20.20;54.80;;;;;;6247131;22;20428;-78
2022/08/11 03:36:19;;;;;;;0.28;0.28;;;20.10;54.90;;;;;;6275301;22;20016;-78
2022/08/11 03:39:08;;;;;;;0.52;0.38;;;20.10;54.90;;;;;;6275258;22;20035;-78
2022/08/11 03:41:52;;;;;;;0.40;0.40;;;20.10;55.60;;;;;;6242852;22;20498;-78
2022/08/11 03:44:54;;;;;;;0.65;0.45;;;20.00;55.00;;;;;;6248611;22;20339;-78
2022/08/11 03:47:44;;;;;;;0.32;0.30;;;20.00;55.10;;;;;;6273583;22;20007;-78
2022/08/11 03:50:45;;;;;;;0.43;0.43;;;20.00;55.10;;;;;;6215406;22;20012;-78
2022/08/11 03:53:35;;;;;;;0.30;0.30;;;19.90;55.10;;;;;;6253101;22;20523;-79
2022/08/11 03:56:35;;;;;;;0.47;0.47;;;19.90;55.10;;;;;;6274765;22;20400;-79
2022/08/11 03:59:35;;;;;;;0.30;0.30;;;19.90;55.20;;;;;;6274992;22;20057;-79
2022/08/11 04:02:30;;;;;;;0.30;0.30;;;19.90;55.30;;;;;;6252163;22;20061;-79
2022/08/11 04:05:35;;;;;;;0.63;0.40;;;19.90;55.20;;;;;;6274081;22;20095;-79
2022/08/11 04:08:25;;;;;;;0.50;0.32;;;19.90;55.30;;;;;;6256924;22;20053;-78
2022/08/11 04:11:26;;;;;;;0.68;0.47;;;19.90;55.40;;;;;;6273552;22;20008;-79
2022/08/11 04:17:52;;;;;;;1.40;0.65;;;19.90;55.50;;;;;;6271928;22;20016;-79
2022/08/11 04:20:56;;;;;;;0.90;0.45;;;19.90;55.50;;;;;;6251842;22;20014;-79
2022/08/11 04:24:03;;;;;;;0.55;0.40;;;19.80;55.50;;;;;;6254737;22;20008;-79
2022/08/11 04:26:48;;;;;;;0.40;0.40;;;19.80;55.60;;;;;;6274107;22;20004;-79
2022/08/11 04:29:33;;;;;;;0.57;0.57;;;19.80;55.60;;;;;;6251721;22;20084;-78
2022/08/11 04:32:28;;;;;;;0.55;0.38;;;19.80;55.70;;;;;;6252515;22;20419;-79
2022/08/11 04:35:19;;;;;;;0.63;0.38;;;19.80;55.70;;;;;;6273261;22;20003;-79
2022/08/11 04:38:07;;;;;;;0.40;0.40;;;19.70;55.80;;;;;;6273963;22;20015;-78
2022/08/11 04:40:59;;;;;;;0.43;0.30;;;19.80;55.80;;;;;;6275651;22;20702;-79
2022/08/11 04:43:59;;;;;;;0.30;0.30;;;19.70;55.90;;;;;;6273146;22;20004;-78
2022/08/11 04:46:59;;;;;;;0.37;0.37;;;19.70;56.00;;;;;;6272624;22;20012;-79
2022/08/11 05:02:30;;;;;;;0.80;0.30;;;19.70;56.00;;;;;;6272817;22;20348;-79
2022/08/11 05:05:37;;;;;;;0.30;0.30;;;19.80;56.00;;;;;;6227008;22;20094;-79
2022/08/11 05:08:31;;;;;;;0.45;0.40;;;19.70;56.00;;;;;;6273843;22;20014;-78
2022/08/11 05:11:21;;;;;;;0.40;0.40;;;19.70;56.00;;;;;;6251265;22;20004;-79
2022/08/11 05:37:04;;;;;;;0.70;0.70;;;19.90;56.10;;;;;;6250490;22;20139;-79
2022/08/11 05:58:39;;;;;;;0.50;0.40;;;20.10;55.90;;;;;;6274164;22;20043;-79
2022/08/11 06:01:06;;;;;;;0.40;0.40;;;20.10;56.00;;;;;;6243789;22;20032;-79
2022/08/11 06:04:12;;;;;;;0.50;0.50;;;20.10;56.00;;;;;;6245084;22;20031;-79
2022/08/11 06:06:21;;;;;;;0.93;0.60;;;20.20;56.00;;;;;;6275047;22;20012;-79
2022/08/11 06:08:47;;;;;;;0.50;0.50;;;20.20;56.00;;;;;;6248311;22;20010;-79
2022/08/11 06:11:16;;;;;;;0.50;0.40;;;20.20;56.00;;;;;;6248158;22;20441;-79
2022/08/11 06:13:44;;;;;;;0.65;0.50;;;20.30;56.00;;;;;;6248888;22;20427;-79
2022/08/11 06:16:14;;;;;;;1.27;0.43;;;20.30;56.00;;;;;;6248294;22;20039;-79
2022/08/11 06:18:46;;;;;;;0.50;0.50;;;20.30;56.00;;;;;;6222978;22;20038;-79
2022/08/11 06:21:12;;;;;;;0.60;0.60;;;20.30;56.00;;;;;;6248159;22;20004;-79
2022/08/11 06:23:41;;;;;;;0.50;0.50;;;20.30;56.00;;;;;;6275675;22;20364;-79
2022/08/11 06:26:12;;;;;;;0.65;0.60;;;20.40;56.00;;;;;;6245805;22;20008;-79
2022/08/11 06:28:43;;;;;;;1.00;0.40;;;20.50;56.10;;;;;;6245816;22;20008;-79
2022/08/11 06:31:18;;;;;;;0.40;0.40;;;20.50;56.00;;;;;;6222159;22;20384;-79
2022/08/11 06:33:56;;;;;;;0.50;0.50;;;20.50;56.00;;;;;;6274112;22;20057;-79
2022/08/11 06:36:48;;;;;;;0.55;0.50;;;20.50;56.00;;;;;;6245063;22;20339;-79
2022/08/11 06:39:26;;;;;;;0.82;0.43;;;20.50;56.00;;;;;;6274220;22;20016;-79
2022/08/11 06:42:04;;;;;;;0.43;0.43;;;20.50;56.00;;;;;;6243310;22;20436;-79
2022/08/11 06:44:38;;;;;;;0.38;0.38;;;20.60;56.10;;;;;;6275943;22;20015;-79
2022/08/11 06:47:16;;;;;;;0.45;0.45;;;20.60;56.00;;;;;;6276249;22;20082;-77
2022/08/11 06:52:30;;;;;;;0.50;0.50;;;20.60;56.00;;;;;;6249843;22;20062;-78
2022/08/11 06:55:05;;;;;;;0.40;0.40;;;20.70;56.10;;;;;;6273028;22;20007;-78
2022/08/11 07:03:16;;;;;;;0.38;0.38;;;20.80;56.00;;;;;;6274896;22;20047;-79
2022/08/11 07:05:54;;;;;;;0.47;0.47;;;20.90;55.90;;;;;;6272529;22;20011;-79
2022/08/11 07:17:48;;;;;;;0.47;0.47;;;21.10;55.60;;;;;;6275769;22;20026;-79
2022/08/11 07:31:13;;;;;;;0.43;0.43;;;21.40;55.10;;;;;;6276187;22;20057;-77
2022/08/11 07:33:45;;;;;;;0.40;0.40;;;21.50;55.00;;;;;;6249072;22;20458;-77
2022/08/11 07:36:12;;;;;;;0.40;0.40;;;21.60;54.90;;;;;;6280522;22;20587;-77
2022/08/11 07:38:43;;;;;;;0.50;0.50;;;21.70;54.90;;;;;;6291910;22;20038;-77
2022/08/11 07:41:11;;;;;;;0.50;0.50;;;21.70;54.70;;;;;;6295628;22;20007;-76
2022/08/11 07:43:38;;;;;;;0.47;0.47;;;21.90;54.60;;;;;;6272576;22;20031;-76
2022/08/11 07:54:11;;;;;;;0.47;0.40;;;22.30;54.10;;;;;;6278471;22;20016;-75
2022/08/11 07:56:38;;;;;;;0.70;0.60;;;22.50;54.50;;;;;;6272428;22;20436;-76
2022/08/11 08:17:59;;;;;;;0.50;0.50;;;24.20;51.90;;;;;;6291692;22;20043;-77
2022/08/11 08:20:30;;;;;;;0.50;0.50;;;24.40;51.70;;;;;;6248966;22;20011;-75
2022/08/11 08:22:59;;;;;;;0.40;0.40;;;24.70;51.50;;;;;;6276675;22;20019;-75
2022/08/11 08:25:29;;;;;;;0.40;0.40;;;24.90;51.40;;;;;;6276604;22;20011;-75
2022/08/11 08:27:57;;;;;;;0.47;0.47;;;25.10;51.30;;;;;;6276460;22;20129;-75
2022/08/11 08:33:04;;;;;;;0.50;0.50;;;25.50;51.00;;;;;;6275655;22;20007;-75
2022/08/11 08:35:30;;;;;;;0.60;0.60;;;25.70;50.90;;;;;;6276324;22;20014;-75
2022/08/11 08:37:58;;;;;;;0.60;0.60;;;25.90;50.90;;;;;;6275859;22;20031;-75
2022/08/11 08:40:25;;;;;;;0.52;0.52;;;26.10;50.90;;;;;;6248437;22;20335;-75
2022/08/11 08:42:55;;;;;;;0.40;0.40;;;26.20;50.70;;;;;;6248671;22;20008;-75
2022/08/11 08:45:22;;;;;;;0.47;0.47;;;26.40;50.60;;;;;;6273391;22;20079;-75
2022/08/11 08:47:58;;;;;;;1.33;0.60;;;26.60;50.50;;;;;;6275951;22;20011;-75
2022/08/11 08:51:33;;;;;;;1.10;0.50;;;26.80;50.30;;;;;;6224104;22;20359;-75
2022/08/11 08:53:15;;;;;;;0.50;0.50;;;26.90;50.20;;;;;;6274952;22;20440;-75
2022/08/11 08:55:42;;;;;;;1.85;0.50;;;27.10;50.20;;;;;;6276003;22;20008;-75
2022/08/11 08:58:09;;;;;;;0.70;0.57;;;27.30;50.20;;;;;;6248618;22;20134;-75
2022/08/11 09:00:44;;;;;;;0.65;0.65;;;27.40;50.10;;;;;;6284029;22;20006;-77
2022/08/11 09:03:11;;;;;;;0.63;0.50;;;27.50;49.90;;;;;;6300552;22;20010;-77
2022/08/11 09:05:38;;;;;;;0.93;0.60;;;27.60;49.90;;;;;;6273619;22;20023;-80
2022/08/11 09:08:04;;;;;;;0.50;0.50;;;27.80;50.00;;;;;;6267426;22;20030;-75
2022/08/11 09:10:31;;;;;;;0.95;0.60;;;27.90;49.80;;;;;;6284414;22;20106;-76
2022/08/11 09:12:58;;;;;;;0.60;0.60;;;28.00;49.70;;;;;;6231880;22;20006;-76
2022/08/11 09:15:25;;;;;;;0.60;0.60;;;28.10;49.50;;;;;;6265722;22;20016;-75
2022/08/11 09:18:00;;;;;;;0.70;0.70;;;28.30;49.40;;;;;;6285263;22;20424;-77
2022/08/11 09:20:28;;;;;;;0.60;0.60;;;28.50;49.30;;;;;;6287857;22;20443;-77
2022/08/11 09:28:20;;;;;;;0.60;0.60;;;28.80;49.00;;;;;;6298041;22;20019;-78
2022/08/11 09:30:53;;;;;;;0.85;0.70;;;28.90;48.80;;;;;;6262860;22;20016;-75
2022/08/11 09:33:21;;;;;;;0.50;0.50;;;29.00;48.70;;;;;;6248171;22;20007;-76
2022/08/11 09:35:48;;;;;;;0.60;0.60;;;29.10;48.70;;;;;;6293315;22;20015;-78
2022/08/11 09:41:04;;;;;;;0.75;0.75;;;29.30;48.40;;;;;;6302448;22;20034;-77
2022/08/11 09:46:10;;;;;;;0.90;0.70;;;29.40;48.30;;;;;;6295764;22;20016;-77
2022/08/11 09:48:41;;;;;;;0.68;0.68;;;29.50;48.00;;;;;;6290296;22;20007;-77
2022/08/11 09:51:08;;;;;;;0.70;0.70;;;29.70;47.90;;;;;;6291649;22;20404;-77
2022/08/11 09:53:39;;;;;;;0.82;0.70;;;29.70;47.80;;;;;;6297421;22;20007;-77
2022/08/11 09:58:50;;;;;;;0.80;0.80;;;29.70;47.70;;;;;;6260751;22;21097;-78
2022/08/11 10:01:27;;;;;;;0.63;0.63;;;29.90;47.60;;;;;;6298578;22;19995;-77
2022/08/11 10:04:02;;;;;;;0.60;0.60;;;29.90;47.40;;;;;;6268455;22;20006;-77
2022/08/11 10:09:11;;;;;;;0.93;0.70;;;30.10;47.30;;;;;;6274461;22;20023;-78
2022/08/11 10:11:42;;;;;;;0.50;0.50;;;30.20;47.20;;;;;;6268677;22;20067;-77
2022/08/11 10:16:54;;;;;;;0.60;0.60;;;30.40;46.90;;;;;;6287468;22;20018;-81
2022/08/11 10:19:20;;;;;;;0.60;0.60;;;30.50;46.70;;;;;;6258660;22;19987;-78
2022/08/11 10:26:49;;;;;;;0.60;0.60;;;30.60;46.50;;;;;;6290849;22;20004;-78
2022/08/11 10:27:22;;;;;;;0.60;0.60;;;30.50;46.50;;;;;;6287022;22;19915;-76
2022/08/11 10:35:14;;;;;;;0.68;0.68;;;30.60;46.20;;;;;;6282658;22;20011;-78
2022/08/11 10:37:43;;;;;;;1.15;0.60;;;30.70;46.00;;;;;;6257152;22;20014;-78
2022/08/11 10:40:14;;;;;;;0.73;0.60;;;30.70;45.80;;;;;;6223339;22;20024;-79
2022/08/11 10:48:05;;;;;;;1.13;0.77;;;30.60;45.60;;;;;;6278427;22;20015;-77
2022/08/11 11:01:28;;;;;;;0.60;0.60;;;30.80;45.10;;;;;;6271997;22;20371;-78
2022/08/11 11:03:57;;;;;;;0.60;0.60;;;30.70;45.00;;;;;;6297226;22;19983;-78
2022/08/11 11:06:35;;;;;;;0.65;0.65;;;30.80;44.90;;;;;;6248338;22;19995;-77
2022/08/11 11:09:10;;;;;;;0.82;0.63;;;30.80;44.70;;;;;;6299342;22;20004;-77
2022/08/11 11:19:52;;;;;;;0.50;0.50;;;31.00;44.90;;;;;;6278925;22;20012;-76
2022/08/11 11:25:24;;;;;;;0.60;0.60;;;31.10;44.10;;;;;;6298531;22;20019;-77
2022/08/11 11:28:13;;;;;;;0.85;0.52;;;31.10;43.90;;;;;;6268588;22;19999;-76
2022/08/11 11:31:14;;;;;;;0.65;0.63;;;31.30;43.90;;;;;;6297167;22;20022;-77
2022/08/11 11:34:15;;;;;;;0.50;0.50;;;31.30;43.70;;;;;;6297048;22;20004;-77
2022/08/11 11:36:47;;;;;;;0.68;0.68;;;31.40;43.60;;;;;;6295839;22;20007;-77
2022/08/11 11:39:17;;;;;;;0.50;0.50;;;31.40;43.40;;;;;;6297279;22;19992;-77
2022/08/11 11:41:44;;;;;;;0.60;0.60;;;31.50;43.30;;;;;;6298870;22;20011;-76
2022/08/11 11:44:12;;;;;;;0.50;0.50;;;31.50;43.10;;;;;;6248698;22;20008;-75
2022/08/11 11:46:40;;;;;;;0.57;0.57;;;31.60;43.10;;;;;;6271859;22;20035;-75
2022/08/11 11:49:08;;;;;;;0.80;0.60;;;31.60;42.90;;;;;;6274646;22;20008;-76
2022/08/11 11:51:36;;;;;;;0.50;0.50;;;31.70;42.90;;;;;;6247402;22;20012;-75
2022/08/11 11:54:03;;;;;;;0.50;0.50;;;31.70;42.70;;;;;;6274831;22;20050;-76
2022/08/11 11:56:30;;;;;;;0.40;0.40;;;31.70;42.60;;;;;;6275031;22;20035;-76
2022/08/11 12:01:43;;;;;;;0.60;0.60;;;31.80;42.60;;;;;;6273911;22;20321;-76
2022/08/11 12:04:12;;;;;;;0.50;0.50;;;31.80;42.60;;;;;;6272978;22;20008;-76
2022/08/11 12:06:39;;;;;;;0.60;0.60;;;31.80;42.50;;;;;;6272978;22;20511;-76
2022/08/11 12:09:05;;;;;;;0.68;0.68;;;31.80;42.50;;;;;;6275794;22;20003;-76
2022/08/11 12:14:17;;;;;;;0.57;0.57;;;31.70;42.40;;;;;;6275993;22;20508;-77
2022/08/11 12:16:45;;;;;;;0.57;0.57;;;31.60;42.30;;;;;;6274012;22;20012;-76
2022/08/11 12:19:14;;;;;;;0.63;0.63;;;31.60;42.20;;;;;;6273079;22;20007;-77
2022/08/11 12:29:54;;;;;;;0.60;0.60;;;31.60;41.90;;;;;;6289061;22;20045;-77
2022/08/11 12:32:22;;;;;;;0.68;0.68;;;31.60;41.80;;;;;;6286930;22;20440;-77
2022/08/11 12:34:48;;;;;;;2.42;0.70;;;31.60;41.80;;;;;;6289175;22;20007;-77
2022/08/11 12:37:18;;;;;;;0.80;0.80;;;31.60;41.80;;;;;;6288673;22;20011;-77
2022/08/11 12:53:54;;;;;;;0.50;0.50;;;31.60;41.60;;;;;;6265517;22;20016;-77
2022/08/11 13:07:06;;;;;;;0.65;0.65;;;31.30;41.40;;;;;;6267566;22;20075;-77
2022/08/11 13:09:32;;;;;;;0.50;0.50;;;31.30;41.30;;;;;;6294852;22;20011;-77
2022/08/11 13:14:36;;;;;;;0.60;0.60;;;31.30;41.10;;;;;;6265004;22;20012;-77
2022/08/11 13:19:48;;;;;;;0.60;0.60;;;31.30;41.10;;;;;;6291422;22;20042;-76
2022/08/11 13:22:17;;;;;;;0.63;0.50;;;31.20;41.00;;;;;;6291387;22;20011;-77
2022/08/11 13:24:44;;;;;;;0.68;0.60;;;31.30;41.00;;;;;;6261310;22;20008;-77
2022/08/11 13:27:11;;;;;;;0.45;0.45;;;31.20;40.90;;;;;;6275567;22;20016;-77
2022/08/11 13:29:40;;;;;;;0.50;0.50;;;31.10;40.80;;;;;;6275366;22;20087;-77
2022/08/11 13:32:06;;;;;;;0.50;0.50;;;31.10;40.80;;;;;;6276484;22;20083;-78
2022/08/11 13:34:34;;;;;;;0.63;0.60;;;31.10;40.80;;;;;;6275385;22;20011;-74
2022/08/11 13:37:01;;;;;;;0.50;0.50;;;31.00;40.70;;;;;;6276715;22;20018;-76
2022/08/11 13:39:29;;;;;;;0.50;0.50;;;30.90;40.60;;;;;;6275920;22;20356;-76
2022/08/11 13:41:58;;;;;;;0.52;0.52;;;31.00;40.60;;;;;;6250166;22;20015;-75
2022/08/11 13:44:26;;;;;;;1.85;0.60;;;31.00;40.60;;;;;;6275772;22;20034;-76
2022/08/11 13:46:56;;;;;;;0.50;0.50;;;31.00;40.50;;;;;;6275565;22;20011;-76
2022/08/11 13:49:23;;;;;;;0.60;0.60;;;31.00;40.40;;;;;;6273920;22;20011;-76
2022/08/11 13:51:49;;;;;;;0.50;0.50;;;31.00;40.40;;;;;;6245686;22;20308;-76
2022/08/11 13:54:18;;;;;;;0.60;0.60;;;31.10;40.40;;;;;;6275416;22;20008;-76
2022/08/11 13:56:46;;;;;;;0.60;0.60;;;31.10;40.30;;;;;;6275274;22;20093;-76
2022/08/11 13:59:13;;;;;;;0.60;0.60;;;31.10;40.30;;;;;;6198095;22;20042;-76
2022/08/11 14:01:53;;;;;;;1.33;0.63;;;31.00;40.20;;;;;;6248277;22;20011;-76
2022/08/11 14:04:27;;;;;;;0.55;0.55;;;31.00;40.20;;;;;;6276310;22;20042;-76
2022/08/11 14:06:54;;;;;;;0.70;0.70;;;31.00;40.20;;;;;;6276031;22;20421;-76
2022/08/11 14:09:26;;;;;;;0.65;0.65;;;30.90;40.00;;;;;;6248196;22;20008;-76
2022/08/11 14:14:42;;;;;;;0.60;0.60;;;30.80;40.00;;;;;;6273373;22;20022;-76
2022/08/11 14:17:09;;;;;;;1.00;0.70;;;30.90;39.90;;;;;;6273351;22;20035;-76
2022/08/11 14:19:39;;;;;;;0.55;0.55;;;30.90;39.80;;;;;;6274886;22;20007;-75
2022/08/11 14:22:05;;;;;;;0.65;0.65;;;31.00;39.80;;;;;;6248106;22;20340;-76
2022/08/11 14:24:34;;;;;;;0.70;0.70;;;30.90;39.70;;;;;;6275834;22;20091;-76
2022/08/11 14:27:00;;;;;;;0.75;0.73;;;31.00;39.70;;;;;;6222786;22;20011;-75
2022/08/11 14:29:28;;;;;;;0.80;0.80;;;30.90;39.50;;;;;;6275407;22;20033;-76
2022/08/11 14:31:57;;;;;;;0.90;0.90;;;31.00;39.40;;;;;;6246666;22;20032;-76
2022/08/11 14:34:26;;;;;;;0.60;0.60;;;31.00;39.30;;;;;;6278221;22;20003;-76
2022/08/11 14:36:55;;;;;;;0.63;0.63;;;31.00;39.20;;;;;;6275784;22;20012;-76
2022/08/11 14:39:25;;;;;;;0.68;0.65;;;30.90;39.10;;;;;;6247994;22;20759;-76
2022/08/11 14:47:14;;;;;;;0.60;0.60;;;30.90;39.10;;;;;;6248962;22;20356;-76
2022/08/11 14:49:42;;;;;;;0.77;0.77;;;30.90;39.00;;;;;;6272260;22;20024;-76
2022/08/11 14:52:15;;;;;;;0.55;0.55;;;30.90;38.90;;;;;;6275003;22;20086;-76
2022/08/11 14:57:27;;;;;;;0.65;0.60;;;30.90;38.90;;;;;;6274392;22;20090;-76
2022/08/11 14:59:56;;;;;;;0.50;0.50;;;30.90;38.90;;;;;;6247877;22;20064;-76
2022/08/11 15:05:06;;;;;;;0.52;0.52;;;30.90;38.90;;;;;;6274804;22;20094;-76
2022/08/11 15:07:32;;;;;;;0.73;0.73;;;30.90;38.80;;;;;;6274596;22;20038;-76
2022/08/11 15:10:04;;;;;;;0.77;0.60;;;30.90;38.80;;;;;;6274930;22;20003;-76
2022/08/11 15:12:31;;;;;;;0.60;0.60;;;30.90;38.70;;;;;;6273294;22;20034;-76
2022/08/11 15:17:39;;;;;;;0.73;0.60;;;30.80;38.60;;;;;;6274749;22;20027;-76
2022/08/11 15:25:29;;;;;;;0.63;0.63;;;30.90;38.40;;;;;;6250845;22;20022;-76
2022/08/11 15:38:41;;;;;;;;;;;30.90;38.50;;;;;;6275559;22;19922;-76
2022/08/11 15:46:32;;;;;;;;;;;30.90;38.40;;;;;;6251869;22;20019;-76
2022/08/11 15:49:04;;;;;;;2.25;0.40;;;30.80;38.30;;;;;;6275847;22;19911;-76
2022/08/11 15:51:36;;;;;;;0.40;0.40;;;30.90;38.30;;;;;;6273792;22;20018;-76
2022/08/11 15:54:07;;;;;;;0.75;0.50;;;30.90;38.20;;;;;;6272864;22;20012;-75
2022/08/11 15:56:38;;;;;;;0.68;0.68;;;30.90;38.20;;;;;;6249168;22;20065;-75
2022/08/11 16:04:31;;;;;;;;;;;30.90;37.90;;;;;;6276382;22;20015;-75
2022/08/11 16:07:05;;;;;;;0.55;0.55;;;30.90;38.00;;;;;;6276082;22;20316;-75
2022/08/11 16:09:36;;;;;;;0.60;0.60;;;30.90;38.00;;;;;;6276527;22;20034;-75
2022/08/11 16:12:05;;;;;;;0.50;0.50;;;30.90;37.90;;;;;;6273533;22;20008;-75
2022/08/11 16:17:25;;;;;;;0.60;0.60;;;30.90;37.70;;;;;;6273897;22;20324;-75
2022/08/11 16:19:53;;;;;;;0.50;0.50;;;30.90;37.70;;;;;;6274395;22;20019;-75
2022/08/11 16:22:27;;;;;;;0.70;0.52;;;30.90;37.70;;;;;;6246612;22;20061;-75
2022/08/11 16:24:54;;;;;;;0.50;0.50;;;30.90;37.70;;;;;;6276757;22;20031;-75
2022/08/11 16:27:21;;;;;;;0.45;0.45;;;30.90;37.70;;;;;;6273603;22;20081;-75
2022/08/11 16:29:50;;;;;;;0.70;0.52;;;30.80;37.60;;;;;;6249855;22;20024;-75
2022/08/11 16:32:20;;;;;;;0.60;0.60;;;30.90;37.70;;;;;;6249417;22;20083;-74
2022/08/11 16:40:14;;;;;;;;;;;30.80;37.60;;;;;;6276799;22;20020;-75
2022/08/11 16:48:04;;;;;;;;;;;30.80;37.70;;;;;;6276651;22;20016;-75
2022/08/11 16:50:31;;;;;;;0.40;0.40;;;30.80;37.80;;;;;;6276649;22;19907;-75
2022/08/11 16:52:56;;;;;;;0.65;0.60;;;30.80;37.90;;;;;;6277001;22;20000;-75
2022/08/11 16:55:23;;;;;;;0.85;0.60;;;30.70;37.80;;;;;;6276579;22;20014;-75
2022/08/11 17:00:35;;;;;;;0.77;0.63;;;30.70;38.40;;;;;;6253203;22;20016;-75
2022/08/11 17:13:57;;;;;;;;;;;30.70;37.80;;;;;;6276334;22;20023;-75
2022/08/11 17:16:31;;;;;;;0.82;0.50;;;30.70;37.90;;;;;;6276165;22;19907;-75
2022/08/11 17:19:07;;;;;;;0.40;0.40;;;30.60;37.90;;;;;;6273553;22;20008;-75
2022/08/11 17:23:45;;;;;;;0.50;0.50;;;30.50;37.90;;;;;;6275003;22;20054;-75
2022/08/11 17:24:26;;;;;;;0.55;0.40;;;30.50;38.00;;;;;;6275437;22;20027;-75
2022/08/11 17:26:57;;;;;;;0.50;0.50;;;30.40;38.00;;;;;;6275746;22;20037;-75
2022/08/11 17:29:30;;;;;;;0.60;0.60;;;30.40;38.10;;;;;;6276196;22;20007;-75
2022/08/11 17:37:16;;;;;;;;;;;30.50;37.70;;;;;;6276612;22;20351;-75
2022/08/11 17:39:43;;;;;;;0.68;0.50;;;30.40;37.80;;;;;;6249874;22;20271;-75
2022/08/11 17:50:08;;;;;;;0.82;0.50;;;30.20;37.90;;;;;;6275919;22;20316;-75
2022/08/11 18:00:37;;;;;;;0.50;0.50;;;30.00;38.00;;;;;;6275992;22;19935;-75
2022/08/11 18:05:48;;;;;;;0.40;0.40;;;29.90;38.00;;;;;;6273928;22;20019;-75
